Nearby METAR Reports

 

CYFC - Fredericton Airp, New Brunswick
Distance from station: E 14km
Updated: Wed, 26-Jan-2022 10:00pm AST
Clear
Clear
 Wind from WNW
Wind: WNW 13 km/h
Temperature: -19°C
Wind Chill: -27°C
Dew Point: -24°C
Humidity: 65%
Barometer: 1028.8 hPa
Clouds: Clear
Visibility: 14 km
2022/01/27 02:00 CYFC 270200Z AUTO 30007KT 9SM CLR M19/M24 A3038 RMK ICE SLP292
CYCX - Gagetown (can M, New Brunswick
Distance from station: E 22km
Updated: Wed, 26-Jan-2022 7:42pm AST
NOT Current
Clear
Clear
 Wind from WNW
Wind: WNW 15 km/h
Temperature: -18°C
Wind Chill: -26°C
Dew Point: -22°C
Humidity: 71%
Barometer: 1026.4 hPa
Clouds: Clear
Visibility: 24 km
2022/01/26 23:42 CYCX 262342Z 30008KT 15SM SKC M18/M22 A3031 RMK DA-4434FT LAST OBS/NEXT 270945 UTC SLP270
 
CYQM - Moncton Airport, New Brunswick
Distance from station: ENE 159km
Updated: Wed, 26-Jan-2022 10:00pm AST
Few Clouds
Few Clouds
 Wind from NNW
Wind: NNW 22 km/h
Temperature: -18°C
Wind Chill: -28°C
Dew Point: -24°C
Humidity: 60%
Barometer: 1026.4 hPa
Clouds: Few Clouds
Visibility: 24 km
Cloud details: Few Clouds 1372 m
Few Clouds 7925 m
2022/01/27 02:00 CYQM 270200Z 33012KT 15SM FEW045 FEW260 M18/M24 A3031 RMK SC1CI1 SC TR CI TR SLP272
CYSJ - Saint John, New Brunswick
Distance from station: SE 88km
Updated: Wed, 26-Jan-2022 10:00pm AST
Clear
Clear
 Wind from NNW
Wind: NNW 24 km/h
Temperature: -18°C
Wind Chill: -28°C
Dew Point: -22°C
Humidity: 71%
Barometer: 1026.4 hPa
Clouds: Clear
Visibility: 24 km
2022/01/27 02:00 CYSJ 270200Z 34013KT 15SM SKC M18/M22 A3031 RMK SLP276
 
CWPE - Point Lepreau, New Brunswick
Distance from station: SSE 90km
Updated: Wed, 26-Jan-2022 10:00pm AST

 Wind from NNW
Wind: NNW 13 km/h
Temperature: -17°C
Wind Chill: -25°C
Dew Point: -22°C
Humidity: 65%
2022/01/27 02:00 CWPE 270200Z AUTO 34007KT M17/M22 RMK AO1 SOG 04 1023 SLP286 T11731221
CYHZ - Halifax Intl Arp, Nova Scotia
Distance from station: ESE 273km
Updated: Wed, 26-Jan-2022 10:00pm AST
Few Clouds
Few Clouds
 Wind from N
Wind: N 26 km/h
Temperature: -14°C
Wind Chill: -24°C
Dew Point: -17°C
Humidity: 78%
Barometer: 1022.4 hPa
Clouds: Few Clouds
Visibility: 24 km
Cloud details: Few Clouds 1250 m
2022/01/27 02:00 CYHZ 270200Z 35014KT 15SM FEW041 M14/M17 A3019 RMK SC1 SLP236
 
CYZX - Greenwood (can M, Nova Scotia
Distance from station: SE 169km
Updated: Wed, 26-Jan-2022 10:00pm AST
Light snow, Showers, Overcast
Light snow, Showers, Overcast
 Wind from NNW
Wind: NNW 15 km/h
Temperature: -10°C
Wind Chill: -17°C
Dew Point: -12°C
Humidity: 85%
Barometer: 1025.4 hPa
Summary: Light snow, Showers
Clouds: Overcast
Visibility: 2.4 km
Cloud details: Overcast 366 m
2022/01/27 02:00 CYZX 270200Z 34008KT 1 1/2SM -SHSN VV012 M10/M12 A3028 RMK SN8 /S02/ SLP257
CYQI - Yarmouth Airport, Nova Scotia
Distance from station: SSE 230km
Updated: Wed, 26-Jan-2022 10:00pm AST
Light snow, Showers, Overcast
Light snow, Showers, Overcast
 Wind from N
Wind: N 26 km/h, Gust: 35 km/h
Temperature: -9°C
Wind Chill: -17°C
Dew Point: -13°C
Humidity: 73%
Barometer: 1025.7 hPa
Summary: Light snow, Showers
Clouds: Overcast
Visibility: 5 km
Cloud details: Overcast 732 m
2022/01/27 02:00 CYQI 270200Z 01014G19KT 3SM -SHSN OVC024 M09/M13 A3029 RMK SC8 CVCTV CLD EMBD SLP263
 
KHUL - Houlton, Maine, USA
Distance from station: WNW 90km
Updated: Wed, 26-Jan-2022 9:53pm AST
Clear
Clear
 Wind from NNW
Wind: NNW 6 km/h
Temperature: -27°C
Dew Point: -29°C
Humidity: 83%
Barometer: 1028.4 hPa
Clouds: Clear
2022/01/27 01:53 KHUL 270153Z AUTO 34003KT CLR M27/M29 A3037 RMK AO2 SLP300 T12671294
KPQI - Presque Isle, Maine, USA
Distance from station: NW 137km
Updated: Wed, 26-Jan-2022 9:56pm AST
Clear
Clear
 Wind from calm
Wind: Calm
Temperature: -27°C
Dew Point: -31°C
Humidity: 69%
Barometer: 1029.1 hPa
Clouds: Clear
Visibility: 16 km
2022/01/27 01:56 KPQI 270156Z AUTO 00000KT 10SM CLR M27/M31 A3039 RMK AO2 SLP340 T12721306
 
KCAR - Caribou, Maine, USA
Distance from station: NW 151km
Updated: Wed, 26-Jan-2022 9:54pm AST
Clear
Clear
 Wind from calm
Wind: Calm
Temperature: -25°C
Dew Point: -29°C
Humidity: 69%
Barometer: 1028.1 hPa
Clouds: Clear
Visibility: 16 km
2022/01/27 01:54 KCAR 270154Z AUTO 00000KT 10SM CLR M25/M29 A3036 RMK AO2 SLP304 T12501289
KMLT - Millinocket, Maine, USA
Distance from station: W 157km
Updated: Wed, 26-Jan-2022 9:53pm AST
Clear
Clear
 Wind from calm
Wind: Calm
Temperature: -24°C
Dew Point: -26°C
Humidity: 84%
Barometer: 1029.5 hPa
Clouds: Clear
Visibility: 16 km
2022/01/27 01:53 KMLT 270153Z AUTO 00000KT 10SM CLR M24/M26 A3040 RMK AO2 SLP313 T12391261 TSNO
 
KBGR - Bangor, Maine, USA
Distance from station: SW 203km
Updated: Wed, 26-Jan-2022 9:53pm AST
Clear
Clear
 Wind from WNW
Wind: WNW 9 km/h
Temperature: -17°C
Wind Chill: -24°C
Dew Point: -24°C
Humidity: 55%
Barometer: 1030.1 hPa
Clouds: Clear
Visibility: 16 km
2022/01/27 01:53 KBGR 270153Z 30005KT 10SM CLR M17/M24 A3042 RMK AO2 SLP308 T11671239
KBHB - Bar Harbor, Maine, USA
Distance from station: SW 204km
Updated: Wed, 26-Jan-2022 9:56pm AST
Clear
Clear
 Wind from NNW
Wind: NNW 9 km/h
Temperature: -16°C
Wind Chill: -22°C
Dew Point: -21°C
Humidity: 66%
Barometer: 1030.1 hPa
Clouds: Clear
Visibility: 16 km
2022/01/27 01:56 KBHB 270156Z AUTO 34005KT 10SM CLR M16/M21 A3042 RMK AO2 SLP306 T11561211 FZRANO
 
CWVU - Brier Island(Aut, Nova Scotia
Distance from station: S 177km
Updated: Wed, 26-Jan-2022 10:00pm AST

 Wind from NW
Wind: NW 39 km/h, Gust: 52 km/h
Temperature: -10°C
Wind Chill: -21°C
Dew Point: -13°C
Humidity: 79%
2022/01/27 02:00 CWVU 270200Z AUTO 32021G28KT M10/M13 RMK AO1 SOG 02 1023 PK WND 33028/0109 SLP265 T10961126
CXNP - Nappan (auto), Nova Scotia
Distance from station: E 191km
Updated: Wed, 26-Jan-2022 10:00pm AST

 Wind from NNW
Wind: NNW 19 km/h
Temperature: -17°C
Wind Chill: -27°C
Dew Point: -21°C
Humidity: 71%
2022/01/27 02:00 CXNP 270200Z AUTO 34010KT M17/M21 RMK AO1 SOG 18 3026 SLP265 T11691214
 
CXKT - Kentville (autob, Nova Scotia
Distance from station: ESE 193km
Updated: Wed, 26-Jan-2022 10:00pm AST

 Wind from N
Wind: N 11 km/h
Temperature: -12°C
Wind Chill: -18°C
Dew Point: -14°C
Humidity: 85%
2022/01/27 02:00 CXKT 270200Z AUTO 01006KT M12/M14 RMK AO1 SOG 30 1024 SLP251 T11151140 50002
CWKG - Kejimkujik (au8), Nova Scotia
Distance from station: SE 197km
Updated: Wed, 26-Jan-2022 10:00pm AST

 Wind from NNW
Wind: NNW 6 km/h
Temperature: -13°C
Dew Point: -14°C
Humidity: 92%
2022/01/27 02:00 CWKG 270200Z AUTO 34003KT M13/M14 RMK AO1 SOG 29 1021 SLP246 T11281141
 
KFVE - Frenchville, Maine, USA
Distance from station: NW 201km
Updated: Wed, 26-Jan-2022 9:53pm AST
Clear
Clear
 Wind from NW
Wind: NW 13 km/h
Temperature: -24°C
Wind Chill: -33°C
Dew Point: -28°C
Humidity: 70%
Barometer: 1026.1 hPa
Clouds: Clear
Visibility: 16 km
2022/01/27 01:53 KFVE 270153Z AUTO 31007KT 10SM CLR M24/M28 A3030 RMK AO2 SLP292 T12391278
CZBF - Bathurst Arpt(Aw, New Brunswick
Distance from station: NNE 208km
Updated: Wed, 26-Jan-2022 10:00pm AST
Clear
Clear
 Wind from WNW
Wind: WNW 11 km/h
Temperature: -21°C
Wind Chill: -29°C
Dew Point: -27°C
Humidity: 59%
Barometer: 1028.1 hPa
Clouds: Clear
Visibility: 14 km
2022/01/27 02:00 CZBF 270200Z AUTO 30006KT 260V330 9SM CLR M21/M27 A3036 RMK SLP290
 
CERM - Edmunston, New Brunswick
Distance from station: NW 213km
Updated: Wed, 26-Jan-2022 10:00pm AST

 Wind from NNW
Wind: NNW 6 km/h
Temperature: -32°C
Dew Point: -35°C
Humidity: 75%
2022/01/27 02:00 CERM 270200Z AUTO 33003KT M32/M35 RMK AO1 SOG 53 3013 SLP312 T13231353
KGNR - Greenville, Maine, USA
Distance from station: W 226km
Updated: Wed, 26-Jan-2022 9:56pm AST

 
Temperature: -21°C
Dew Point: -26°C
Humidity: 64%
Barometer: 1024.7 hPa
2022/01/27 01:56 KGNR 270156Z AUTO M21/M26 A3026 RMK AO1 SLP290 T12111261 $
 
CWSD - Summerside (auto, PEI
Distance from station: ENE 228km
Updated: Wed, 26-Jan-2022 10:00pm AST

 Wind from NW
Wind: NW 15 km/h
Temperature: -17°C
Wind Chill: -26°C
Dew Point: -22°C
Humidity: 65%
2022/01/27 02:00 CWSD 270200Z AUTO 32008KT M17/M22 RMK AO1 SOG 12 2018 SLP263 T11731222
K40B - Clayton Lake, Maine, USA
Distance from station: WNW 233km
Updated: Wed, 26-Jan-2022 10:16pm AST

 Wind from calm
Wind: Calm
Temperature: -32°C
Dew Point: -36°C
Humidity: 67%
Barometer: 1027.1 hPa
2022/01/27 02:16 K40B 270216Z AUTO 00000KT M32/M36 A3033 RMK AO1 SLP325 T13241357 51013
 
CZCR - Charlo Airport, New Brunswick
Distance from station: N 236km
Updated: Wed, 26-Jan-2022 10:00pm AST

 Wind from SW
Wind: SW 11 km/h
Temperature: -23°C
Wind Chill: -31°C
Dew Point: -27°C
Humidity: 70%
2022/01/27 02:00 CZCR 270200Z AUTO 22006KT M23/M27 RMK AO1 SOG 43 1015 SLP294 T12321274
CWNE - North Point (aut, Ontario
Distance from station: NE 246km
Updated: Wed, 26-Jan-2022 10:00pm AST

 Wind from NNW
Wind: NNW 35 km/h, Gust: 44 km/h
Temperature: -13°C
Wind Chill: -24°C
Dew Point: -17°C
Humidity: 72%
2022/01/27 02:00 CWNE 270200Z AUTO 33019G24KT M13/M17 RMK AO1 PK WND 31026/0118 SLP251 T11281166 51015
 
CXLB - Lunenburg, Nova Scotia
Distance from station: SE 250km
Updated: Wed, 26-Jan-2022 10:00pm AST

 Wind from NNW
Wind: NNW 19 km/h
Temperature: -8°C
Wind Chill: -15°C
Dew Point: -11°C
Humidity: 79%
2022/01/27 02:00 CXLB 270200Z AUTO 34010KT M08/M11 RMK AO1 PK WND 34017/0130 SLP230 T10841111 51025
CZDB - Debert, Nova Scotia
Distance from station: E 255km
Updated: Wed, 26-Jan-2022 10:00pm AST

 Wind from N
Wind: N 9 km/h
Temperature: -14°C
Wind Chill: -20°C
Dew Point: -19°C
Humidity: 66%
2022/01/27 02:00 CZDB 270200Z AUTO 35005KT M14/M19 RMK AO1 SOG 50 1021 SLP251 T11421191
 
CWOC - New Carlisle1, Quebec
Distance from station: NNE 262km
Updated: Wed, 26-Jan-2022 10:00pm AST

 Wind from WNW
Wind: WNW 15 km/h
Temperature: -21°C
Wind Chill: -30°C
Dew Point: -27°C
Humidity: 59%
2022/01/27 02:00 CWOC 270200Z AUTO 30008KT M21/M27 RMK AO1 SLP278 T12111268 51026
CWWE - Western Head (ma, Nova Scotia
Distance from station: SE 264km
Updated: Wed, 26-Jan-2022 9:00pm AST
NOT Current

 Wind from NNW
Wind: NNW 17 km/h
Temperature: -8°C
Wind Chill: -14°C
Dew Point: -11°C
Humidity: 79%
2022/01/27 01:00 CWWE 270100Z AUTO 33009KT M08/M11 RMK AO1 SLP233 T10831113 51026
 
KRKD - Rockland/Knox, Maine, USA
Distance from station: SW 274km
Updated: Wed, 26-Jan-2022 9:56pm AST
Clear
Clear
 Wind from varies
Wind: varies 7 km/h
Temperature: -14°C
Wind Chill: -19°C
Dew Point: -23°C
Humidity: 47%
Barometer: 1030.5 hPa
Clouds: Clear
Visibility: 16 km
2022/01/27 01:56 KRKD 270156Z AUTO VRB04KT 10SM CLR M14/M23 A3043 RMK AO2 SLP307 T11391228 FZRANO
CAHR - Harrington Cda, Ontario
Distance from station: ENE 277km
Updated: Wed, 26-Jan-2022 10:00pm AST

 Wind from WNW
Wind: WNW 11 km/h
Temperature: -14°C
Wind Chill: -21°C
Dew Point: -18°C
Humidity: 72%
2022/01/27 02:00 CAHR 270200Z AUTO 30006KT M14/M18 RMK AO1 SOG 42 1016 SLP245 T11421179
 
KWVL - Waterville, Maine, USA
Distance from station: WSW 277km
Updated: Wed, 26-Jan-2022 9:56pm AST
Clear
Clear
 Wind from NNW
Wind: NNW 19 km/h
Temperature: -17°C
Wind Chill: -27°C
Dew Point: -24°C
Humidity: 55%
Barometer: 1029.1 hPa
Clouds: Clear
Visibility: 16 km
2022/01/27 01:56 KWVL 270156Z AUTO 34010KT 10SM CLR M17/M24 A3039 RMK AO2 SLP330 T11721244 FZRANO
CYYG - Charlottetown Ar, PEI
Distance from station: E 280km
Updated: Wed, 26-Jan-2022 10:39pm AST
Light snow, Overcast
Light snow, Overcast
 Wind from W
Wind: W 15 km/h
Temperature: -15°C
Wind Chill: -23°C
Dew Point: -18°C
Humidity: 78%
Barometer: 1024.4 hPa
Summary: Light Snow
Clouds: Overcast
Visibility: 16 km
Cloud details: Overcast 671 m
2022/01/27 02:39 CYYG 270239Z 28008KT 10SM -SN OVC022 M15/M18 A3025 RMK SC8 SLP249
 
CXMI - Mcnabs Island, Nova Scotia
Distance from station: ESE 284km
Updated: Wed, 26-Jan-2022 10:00pm AST

 Wind from N
Wind: N 17 km/h, Gust: 30 km/h
Temperature: -11°C
Wind Chill: -18°C
Dew Point: -15°C
Humidity: 73%
2022/01/27 02:00 CXMI 270200Z AUTO 36009G16KT M11/M15 RMK AO1 PK WND 35017/0124 SLP227 T11101152 51029
KAUG - Augusta, Maine, USA
Distance from station: SW 298km
Updated: Wed, 26-Jan-2022 9:53pm AST
Clear
Clear
 Wind from NNW
Wind: NNW 9 km/h
Temperature: -16°C
Wind Chill: -22°C
Dew Point: -23°C
Humidity: 55%
Barometer: 1030.1 hPa
Clouds: Clear
Visibility: 16 km
2022/01/27 01:53 KAUG 270153Z AUTO 33005KT 10SM CLR M16/M23 A3042 RMK AO2 SLP311 T11611233
 
CWST - La Pocatiere, Quebec
Distance from station: NW 303km
Updated: Wed, 26-Jan-2022 10:00pm AST

 Wind from SSW
Wind: SSW 20 km/h
Temperature: -19°C
Wind Chill: -29°C
Dew Point: -25°C
Humidity: 59%
2022/01/27 02:00 CWST 270200Z AUTO 21011KT M19/M25 RMK AO1 SOG 14 0005 SLP303 T11901250
CWNH - Riviere Du Loup, Quebec
Distance from station: NW 304km
Updated: Wed, 26-Jan-2022 10:00pm AST

 Wind from SSE
Wind: SSE 4 km/h
Temperature: -25°C
Dew Point: -28°C
Humidity: 76%
2022/01/27 02:00 CWNH 270200Z AUTO 15002KT M25/M28 RMK AO1 SOG 19 1006 SLP307 T12521281
 
CWBK - Caribou Point(Ma, Nova Scotia
Distance from station: E 312km
Updated: Wed, 26-Jan-2022 10:00pm AST

 Wind from NW
Wind: NW 33 km/h
Temperature: -13°C
Wind Chill: -24°C
Dew Point: -17°C
Humidity: 72%
2022/01/27 02:00 CWBK 270200Z AUTO 31018KT M13/M17 RMK AO1 SOG 50 1017 PK WND 31021/0144 SLP245 T11281167
CWHV - Beauceville, Quebec
Distance from station: W 317km
Updated: Wed, 26-Jan-2022 10:00pm AST

 Wind from calm
Wind: Calm
Temperature: -27°C
Dew Point: -30°C
Humidity: 76%
2022/01/27 02:00 CWHV 270200Z AUTO 00000KT M27/M30 RMK AO1 SLP315 T12671297 51010
 
KIWI - Wiscasset, Maine, USA
Distance from station: SW 318km
Updated: Wed, 26-Jan-2022 9:53pm AST
Clear
Clear
 Wind from NNW
Wind: NNW 6 km/h
Temperature: -14°C
Dew Point: -23°C
Humidity: 47%
Barometer: 1031.2 hPa
Clouds: Clear
Visibility: 16 km
2022/01/27 01:53 KIWI 270153Z AUTO 33003KT 10SM CLR M14/M23 A3045 RMK AO2 SLP313 T11441233